createdAt,value
2019-02-14T00:03:33.886Z,10.27
2019-02-14T00:06:03.079Z,6.57
2019-02-14T00:08:32.335Z,9.83
2019-02-14T00:11:01.879Z,9.73
2019-02-14T00:13:31.079Z,8.87
2019-02-14T00:16:00.299Z,9.60
2019-02-14T00:18:29.572Z,10.30
2019-02-14T00:20:58.766Z,11.10
2019-02-14T00:23:28.370Z,9.00
2019-02-14T00:25:57.623Z,9.27
2019-02-14T00:28:26.825Z,6.67
2019-02-14T00:30:56.069Z,7.27
2019-02-14T00:33:25.264Z,7.40
2019-02-14T00:35:54.885Z,7.60
2019-02-14T00:38:24.084Z,7.60
2019-02-14T00:40:53.347Z,7.87
2019-02-14T00:43:22.525Z,8.27
2019-02-14T00:45:51.831Z,7.80
2019-02-14T00:48:21.296Z,6.83
2019-02-14T00:50:50.545Z,7.17
2019-02-14T00:53:19.990Z,9.27
2019-02-14T00:55:49.275Z,8.40
2019-02-14T00:58:18.490Z,9.97
2019-02-14T01:00:47.682Z,8.40
2019-02-14T01:03:16.923Z,9.63
2019-02-14T01:05:46.480Z,7.60
2019-02-14T01:08:15.734Z,6.67
2019-02-14T01:10:45.244Z,8.07
2019-02-14T01:13:14.540Z,10.30
2019-02-14T01:18:33.617Z,8.83
2019-02-14T01:21:02.828Z,9.37
2019-02-14T01:23:32.077Z,9.00
2019-02-14T01:26:01.269Z,7.80
2019-02-14T01:28:30.809Z,9.73
2019-02-14T01:31:00.359Z,8.67
2019-02-14T01:33:29.622Z,9.07
2019-02-14T01:35:58.817Z,11.40
2019-02-14T01:38:28.022Z,8.17
2019-02-14T01:40:57.265Z,8.67
2019-02-14T01:43:26.449Z,9.63
2019-02-14T01:45:55.760Z,8.07
2019-02-14T01:48:25.259Z,8.23
2019-02-14T01:50:54.796Z,11.57
2019-02-14T01:53:24.000Z,10.53
2019-02-14T01:55:53.247Z,8.90
2019-02-14T01:58:22.845Z,8.60
2019-02-14T02:00:52.105Z,8.63
2019-02-14T02:03:21.437Z,7.63
2019-02-14T02:05:51.160Z,8.13
2019-02-14T02:08:22.465Z,8.83
2019-02-14T02:10:51.841Z,8.90
2019-02-14T02:13:21.094Z,10.57
2019-02-14T02:15:50.275Z,7.87
2019-02-14T02:20:56.024Z,10.77
2019-02-14T02:23:25.264Z,7.43
2019-02-14T02:25:54.845Z,7.70
2019-02-14T02:28:24.087Z,8.40
2019-02-14T02:30:53.276Z,7.70
2019-02-14T02:33:22.534Z,6.70
2019-02-14T02:36:00.130Z,7.70
2019-02-14T02:38:23.083Z,7.30
2019-02-14T02:40:52.279Z,7.40
2019-02-14T02:43:21.476Z,8.57
2019-02-14T02:45:50.778Z,7.00
2019-02-14T02:48:19.968Z,7.20
2019-02-14T02:50:49.215Z,8.37
2019-02-14T02:53:18.764Z,7.87
2019-02-14T02:55:48.073Z,7.20
2019-02-14T02:58:17.950Z,7.80
2019-02-14T03:00:47.202Z,7.23
2019-02-14T03:03:16.398Z,6.63
2019-02-14T03:05:45.959Z,6.53
2019-02-14T03:08:15.174Z,8.77
2019-02-14T03:10:44.409Z,7.90
2019-02-14T03:13:13.970Z,6.20
2019-02-14T03:15:43.174Z,8.37
2019-02-14T03:18:12.555Z,7.67
2019-02-14T03:20:41.738Z,7.80
2019-02-14T03:23:11.014Z,7.00
2019-02-14T03:25:40.222Z,7.33
2019-02-14T03:28:09.854Z,7.47
2019-02-14T03:30:39.051Z,7.47
2019-02-14T03:33:08.381Z,7.53
2019-02-14T03:35:37.849Z,8.17
2019-02-14T03:38:07.375Z,9.27
2019-02-14T03:40:36.682Z,7.87
2019-02-14T03:43:05.935Z,8.20
2019-02-14T03:45:35.197Z,8.57
2019-02-14T03:48:04.439Z,6.73
2019-02-14T03:50:33.898Z,9.87
2019-02-14T03:53:03.148Z,8.40
2019-02-14T03:55:32.329Z,6.90
2019-02-14T03:58:08.735Z,8.07
2019-02-14T04:00:37.918Z,8.40
2019-02-14T04:03:07.193Z,7.77
2019-02-14T04:05:36.728Z,9.23
2019-02-14T04:08:05.918Z,9.83
2019-02-14T04:10:35.169Z,8.73
2019-02-14T04:13:04.369Z,7.40
2019-02-14T04:15:33.613Z,7.40
2019-02-14T04:18:02.813Z,5.27
2019-02-14T04:20:32.064Z,6.00
2019-02-14T04:23:01.268Z,5.37
2019-02-14T04:25:30.522Z,5.37
2019-02-14T04:27:59.837Z,5.57
2019-02-14T04:30:29.423Z,7.03
2019-02-14T04:32:58.658Z,6.13
2019-02-14T04:35:28.171Z,5.10
2019-02-14T04:37:57.734Z,5.23
2019-02-14T04:40:33.399Z,6.77
2019-02-14T04:42:57.923Z,4.97
2019-02-14T04:45:27.175Z,5.57
2019-02-14T04:47:56.424Z,3.87
2019-02-14T04:50:25.627Z,4.07
2019-02-14T04:52:54.888Z,4.40
2019-02-14T04:55:24.083Z,4.43
2019-02-14T04:57:53.328Z,4.00
2019-02-14T05:00:22.871Z,4.13
2019-02-14T05:02:52.137Z,5.87
2019-02-14T05:05:21.454Z,4.20
2019-02-14T05:07:50.649Z,4.70
2019-02-14T05:10:19.890Z,4.53
2019-02-14T05:12:49.077Z,4.93
2019-02-14T05:15:18.330Z,4.77
2019-02-14T05:17:47.522Z,5.10
2019-02-14T05:20:16.761Z,6.63
2019-02-14T05:22:46.259Z,5.73
2019-02-14T05:25:15.519Z,6.03
2019-02-14T05:27:44.708Z,5.87
2019-02-14T05:30:14.180Z,7.07
2019-02-14T05:32:44.376Z,4.63
2019-02-14T05:35:13.583Z,5.57
2019-02-14T05:37:42.837Z,5.20
2019-02-14T05:40:12.323Z,5.73
2019-02-14T05:42:41.890Z,6.77
2019-02-14T05:45:11.523Z,4.70
2019-02-14T05:47:40.769Z,5.03
2019-02-14T05:50:10.454Z,4.90
2019-02-14T05:52:39.699Z,6.43
2019-02-14T05:55:10.045Z,5.73
2019-02-14T05:57:39.348Z,4.80
2019-02-14T06:00:10.589Z,4.83
2019-02-14T06:02:39.839Z,6.27
2019-02-14T06:05:09.042Z,6.97
2019-02-14T06:07:38.229Z,5.07
2019-02-14T06:10:08.061Z,5.80
2019-02-14T06:12:37.265Z,6.47
2019-02-14T06:15:07.252Z,6.63
2019-02-14T06:17:36.441Z,6.00
2019-02-14T06:20:05.819Z,5.37
2019-02-14T06:22:35.006Z,6.23
2019-02-14T06:25:04.291Z,4.87
2019-02-14T06:27:33.488Z,7.27
2019-02-14T06:30:02.746Z,5.20
2019-02-14T06:32:31.937Z,5.60
2019-02-14T06:35:01.172Z,6.47
2019-02-14T06:37:30.356Z,5.80
2019-02-14T06:39:59.993Z,9.67
2019-02-14T06:42:29.204Z,6.87
2019-02-14T06:44:58.508Z,6.57
2019-02-14T06:47:27.717Z,8.70
2019-02-14T06:49:56.972Z,12.07
2019-02-14T06:52:26.183Z,7.77
2019-02-14T06:54:55.413Z,6.33
2019-02-14T06:57:24.626Z,9.27
2019-02-14T06:59:53.893Z,6.57
2019-02-14T07:02:23.088Z,8.50
2019-02-14T07:04:52.307Z,8.07
2019-02-14T07:07:21.527Z,7.17
2019-02-14T07:09:50.731Z,7.83
2019-02-14T07:12:19.971Z,13.60
2019-02-14T07:14:49.162Z,17.40
2019-02-14T07:17:57.839Z,14.43
2019-02-14T07:20:27.062Z,12.47
2019-02-14T07:22:56.373Z,9.83
2019-02-14T07:25:25.534Z,10.60
2019-02-14T07:27:54.876Z,8.63
2019-02-14T07:30:24.189Z,10.60
2019-02-14T07:32:53.435Z,12.03
2019-02-14T07:35:22.620Z,12.40
2019-02-14T07:37:51.871Z,11.80
2019-02-14T07:40:21.059Z,14.37
2019-02-14T07:42:50.232Z,11.37
2019-02-14T07:45:19.545Z,10.17
2019-02-14T07:47:48.745Z,10.00
2019-02-14T07:50:17.990Z,9.97
2019-02-14T07:52:47.186Z,10.13
2019-02-14T07:55:16.505Z,9.70
2019-02-14T07:57:45.790Z,11.17
2019-02-14T08:00:15.178Z,8.93
2019-02-14T08:02:44.367Z,11.37
2019-02-14T08:05:13.556Z,12.17
2019-02-14T08:07:42.838Z,10.57
2019-02-14T08:10:13.190Z,12.17
2019-02-14T08:12:42.434Z,7.73
2019-02-14T08:15:13.121Z,10.97
2019-02-14T08:17:42.735Z,11.70
2019-02-14T08:20:12.336Z,7.97
2019-02-14T08:22:41.938Z,8.80
2019-02-14T08:25:12.124Z,8.90
2019-02-14T08:27:41.363Z,9.37
2019-02-14T08:30:12.710Z,10.63
2019-02-14T08:32:41.961Z,9.70
2019-02-14T08:35:11.134Z,11.27
2019-02-14T08:37:45.487Z,11.63
2019-02-14T08:40:14.482Z,8.67
2019-02-14T08:42:43.658Z,8.00
2019-02-14T08:45:13.023Z,7.23
2019-02-14T08:47:42.195Z,7.53
2019-02-14T08:50:11.480Z,18.20
2019-02-14T08:52:41.007Z,8.60
2019-02-14T08:55:10.343Z,13.53
2019-02-14T08:57:39.552Z,10.53
2019-02-14T09:00:10.614Z,9.23
2019-02-14T09:02:40.130Z,9.37
2019-02-14T09:05:09.383Z,10.83
2019-02-14T09:07:38.588Z,12.80
2019-02-14T09:10:09.449Z,12.47
2019-02-14T09:12:38.632Z,11.97
2019-02-14T09:17:44.054Z,9.23
2019-02-14T09:20:14.046Z,12.40
2019-02-14T09:22:43.234Z,9.20
2019-02-14T09:25:12.510Z,9.13
2019-02-14T09:27:41.743Z,9.00
2019-02-14T09:30:11.056Z,7.97
2019-02-14T09:32:40.312Z,8.30
2019-02-14T09:35:09.828Z,9.13
2019-02-14T09:37:39.172Z,10.10
2019-02-14T09:40:09.696Z,13.13
2019-02-14T09:42:38.942Z,10.03
2019-02-14T09:45:09.626Z,11.67
2019-02-14T09:47:38.882Z,9.20
2019-02-14T09:50:09.393Z,8.87
2019-02-14T09:52:38.561Z,16.53
2019-02-14T09:55:08.120Z,11.73
2019-02-14T09:57:37.304Z,13.40
2019-02-14T10:00:08.239Z,9.40
2019-02-14T10:02:37.461Z,12.17
2019-02-14T10:05:07.065Z,16.70
2019-02-14T10:07:36.266Z,12.63
2019-02-14T10:10:06.696Z,10.70
2019-02-14T10:12:35.907Z,20.30
2019-02-14T10:15:44.528Z,17.20
2019-02-14T10:18:14.040Z,8.90
2019-02-14T10:20:43.293Z,7.67
2019-02-14T10:23:13.184Z,8.67
2019-02-14T10:25:42.655Z,10.13
2019-02-14T10:28:12.304Z,10.87
2019-02-14T10:30:41.477Z,10.03
2019-02-14T10:33:10.840Z,8.77
2019-02-14T10:35:40.039Z,9.43
2019-02-14T10:38:09.281Z,8.33
2019-02-14T10:40:38.486Z,6.83
2019-02-14T10:43:07.752Z,6.70
2019-02-14T10:45:37.002Z,13.13
2019-02-14T10:48:06.264Z,11.87
2019-02-14T10:50:35.439Z,12.17
2019-02-14T10:53:04.695Z,8.33
2019-02-14T10:55:34.262Z,12.47
2019-02-14T10:58:03.541Z,7.90
2019-02-14T11:00:32.841Z,6.30
2019-02-14T11:03:02.098Z,6.03
2019-02-14T11:05:31.305Z,8.23
2019-02-14T11:08:00.979Z,7.67
2019-02-14T11:10:30.195Z,5.60
2019-02-14T11:12:59.768Z,10.30
2019-02-14T11:15:29.010Z,9.23
2019-02-14T11:17:58.537Z,6.83
2019-02-14T11:20:27.777Z,9.90
2019-02-14T11:22:56.972Z,10.53
2019-02-14T11:25:29.011Z,5.63
2019-02-14T11:27:58.205Z,6.93
2019-02-14T11:33:01.935Z,6.17
2019-02-14T11:35:31.207Z,5.47
2019-02-14T11:38:00.404Z,4.70
2019-02-14T11:40:29.592Z,5.40
2019-02-14T11:42:58.830Z,8.83
2019-02-14T11:46:07.546Z,5.83
2019-02-14T11:48:36.741Z,4.67
2019-02-14T11:51:05.925Z,6.97
2019-02-14T11:53:35.168Z,4.67
2019-02-14T11:56:04.363Z,5.77
2019-02-14T11:58:33.604Z,6.63
2019-02-14T12:01:02.784Z,7.13
2019-02-14T12:03:32.362Z,8.37
2019-02-14T12:06:01.570Z,5.37
2019-02-14T12:08:30.819Z,6.40
2019-02-14T12:11:00.038Z,6.03
2019-02-14T12:13:29.270Z,6.53
2019-02-14T12:15:58.446Z,5.80
2019-02-14T12:18:27.697Z,5.17
2019-02-14T12:20:56.880Z,5.47
2019-02-14T12:23:26.119Z,7.37
2019-02-14T12:25:55.349Z,7.50
2019-02-14T12:28:24.541Z,7.93
2019-02-14T12:30:53.839Z,7.07
2019-02-14T12:33:23.029Z,6.53
2019-02-14T12:35:52.298Z,6.07
2019-02-14T12:38:21.478Z,6.33
2019-02-14T12:40:50.787Z,6.03
2019-02-14T12:43:20.082Z,5.73
2019-02-14T12:45:49.419Z,5.80
2019-02-14T12:48:18.629Z,9.10
2019-02-14T12:50:47.909Z,5.33
2019-02-14T12:53:17.097Z,6.97
2019-02-14T12:55:47.735Z,8.57
2019-02-14T12:58:17.255Z,8.80
2019-02-14T13:00:46.773Z,4.53
2019-02-14T13:03:16.146Z,8.77
2019-02-14T13:05:45.453Z,6.57
2019-02-14T13:08:14.718Z,5.37
2019-02-14T13:10:43.899Z,5.90
2019-02-14T13:13:13.180Z,6.63
2019-02-14T13:15:42.990Z,5.07
2019-02-14T13:18:12.920Z,4.67
2019-02-14T13:20:42.113Z,5.30
2019-02-14T13:23:11.355Z,6.03
2019-02-14T13:25:40.552Z,4.27
2019-02-14T13:28:09.796Z,3.60
2019-02-14T13:30:39.735Z,3.60
2019-02-14T13:33:09.046Z,3.47
2019-02-14T13:35:38.287Z,4.70
2019-02-14T13:38:07.543Z,3.83
2019-02-14T13:40:36.729Z,4.33
2019-02-14T13:43:06.272Z,6.03
2019-02-14T13:45:35.556Z,14.70
2019-02-14T13:48:04.774Z,7.60
2019-02-14T13:50:34.039Z,6.30
2019-02-14T13:53:03.206Z,8.63
2019-02-14T13:55:32.440Z,7.70
2019-02-14T13:58:01.617Z,6.67
2019-02-14T14:00:30.877Z,10.97
2019-02-14T14:03:00.401Z,4.73
2019-02-14T14:05:30.008Z,4.80
2019-02-14T14:07:59.185Z,8.27
2019-02-14T14:10:28.421Z,9.20
2019-02-14T14:12:57.725Z,13.67
2019-02-14T14:18:01.535Z,8.30
2019-02-14T14:20:31.131Z,8.33
2019-02-14T14:23:00.315Z,8.07
2019-02-14T14:25:29.509Z,9.97
2019-02-14T14:27:58.790Z,9.00
2019-02-14T14:30:28.339Z,5.97
2019-02-14T14:32:57.654Z,12.97
2019-02-14T14:35:26.864Z,9.73
2019-02-14T14:37:56.182Z,11.03
2019-02-14T14:40:25.471Z,7.93
2019-02-14T14:43:13.673Z,9.00
2019-02-14T14:46:01.842Z,7.57
2019-02-14T14:48:50.296Z,8.70
2019-02-14T14:51:19.483Z,11.73
2019-02-14T14:53:48.732Z,8.43
2019-02-14T14:56:18.270Z,7.63
2019-02-14T14:58:47.522Z,11.93
2019-02-14T15:01:17.070Z,8.83
2019-02-14T15:03:46.679Z,7.87
2019-02-14T15:06:15.867Z,7.70
2019-02-14T15:08:45.430Z,9.30
2019-02-14T15:11:14.650Z,5.73
2019-02-14T15:13:43.836Z,5.50
2019-02-14T15:16:13.077Z,5.28
2019-02-14T15:18:42.255Z,5.75
2019-02-14T15:21:11.775Z,11.40
2019-02-14T15:23:40.957Z,6.53
2019-02-14T15:26:10.202Z,6.28
2019-02-14T15:28:39.678Z,6.03
2019-02-14T15:31:09.288Z,8.93
2019-02-14T15:33:38.478Z,11.28
2019-02-14T15:36:07.711Z,9.48
2019-02-14T15:38:37.174Z,6.87
2019-02-14T15:41:07.875Z,6.15
2019-02-14T15:43:37.057Z,9.70
2019-02-14T15:46:18.015Z,11.08
2019-02-14T15:48:47.695Z,11.10
2019-02-14T15:51:18.314Z,9.23
2019-02-14T15:53:47.825Z,8.43
2019-02-14T15:56:17.074Z,9.05
2019-02-14T15:58:46.588Z,8.10
2019-02-14T16:01:16.586Z,8.53
2019-02-14T16:03:46.734Z,9.97
2019-02-14T16:06:16.036Z,8.97
2019-02-14T16:08:47.153Z,8.90
2019-02-14T16:11:16.194Z,10.63
2019-02-14T16:13:45.811Z,9.77
2019-02-14T16:16:15.005Z,9.70
2019-02-14T16:18:46.212Z,10.73
2019-02-14T16:21:15.161Z,7.93
2019-02-14T16:23:44.414Z,11.43
2019-02-14T16:26:14.965Z,10.30
2019-02-14T16:28:44.580Z,10.17
2019-02-14T16:31:13.766Z,13.23
2019-02-14T16:33:43.013Z,13.47
2019-02-14T16:36:12.190Z,12.20
2019-02-14T16:41:16.621Z,8.40
2019-02-14T16:43:45.862Z,7.23
2019-02-14T16:46:15.099Z,10.23
2019-02-14T16:48:44.335Z,8.53
2019-02-14T16:51:13.515Z,7.20
2019-02-14T16:53:42.752Z,8.97
2019-02-14T16:56:12.046Z,7.20
2019-02-14T16:58:41.299Z,14.17
2019-02-14T17:01:10.486Z,7.23
2019-02-14T17:03:39.666Z,9.50
2019-02-14T17:08:43.936Z,13.93
2019-02-14T17:11:13.201Z,12.73
2019-02-14T17:13:42.367Z,14.33
2019-02-14T17:16:30.601Z,11.73
2019-02-14T17:18:59.794Z,10.37
2019-02-14T17:21:29.032Z,10.43
2019-02-14T17:23:58.227Z,10.77
2019-02-14T17:26:27.492Z,12.13
2019-02-14T17:28:56.976Z,9.50
2019-02-14T17:31:26.209Z,12.10
2019-02-14T17:33:55.391Z,15.50
2019-02-14T17:36:24.640Z,11.27
2019-02-14T17:38:53.840Z,14.53
2019-02-14T17:41:23.068Z,12.17
2019-02-14T17:43:52.313Z,13.20
2019-02-14T17:46:21.536Z,15.17
2019-02-14T17:48:51.072Z,13.93
2019-02-14T17:51:20.278Z,11.70
2019-02-14T17:53:49.628Z,11.37
2019-02-14T17:56:18.804Z,12.17
2019-02-14T17:58:48.034Z,10.67
2019-02-14T18:01:17.229Z,12.73
2019-02-14T18:03:46.485Z,14.43
2019-02-14T18:06:15.681Z,11.50
2019-02-14T18:08:44.914Z,14.23
2019-02-14T18:11:14.111Z,14.70
2019-02-14T18:13:43.368Z,11.70
2019-02-14T18:16:12.684Z,12.70
2019-02-14T18:18:42.261Z,14.53
2019-02-14T18:21:11.849Z,12.20
2019-02-14T18:23:41.369Z,19.43
2019-02-14T18:26:10.620Z,9.83
2019-02-14T18:28:39.832Z,19.27
2019-02-14T18:31:09.476Z,17.30
2019-02-14T18:33:38.661Z,15.60
2019-02-14T18:36:07.909Z,14.50
2019-02-14T18:38:37.101Z,17.63
2019-02-14T18:41:06.358Z,14.07
2019-02-14T18:43:35.605Z,13.00
2019-02-14T18:46:04.901Z,20.70
2019-02-14T18:48:34.098Z,19.90
2019-02-14T18:51:03.382Z,13.33
2019-02-14T18:53:32.588Z,17.60
2019-02-14T18:56:01.778Z,20.50
2019-02-14T18:58:31.373Z,58.63
2019-02-14T19:01:00.562Z,53.40
2019-02-14T19:03:29.804Z,50.63
2019-02-14T19:05:59.010Z,43.80
2019-02-14T19:08:28.260Z,39.30
2019-02-14T19:10:57.768Z,33.57
2019-02-14T19:13:27.366Z,21.67
2019-02-14T19:15:56.558Z,18.53
2019-02-14T19:18:25.815Z,14.30
2019-02-14T19:20:55.327Z,15.07
2019-02-14T19:23:24.620Z,14.53
2019-02-14T19:25:54.485Z,15.83
2019-02-14T19:28:23.742Z,15.67
2019-02-14T19:30:52.945Z,19.07
2019-02-14T19:33:22.526Z,23.03
2019-02-14T19:35:51.727Z,16.50
2019-02-14T19:38:20.920Z,17.50
2019-02-14T19:40:50.179Z,20.83
2019-02-14T19:43:19.389Z,16.27
2019-02-14T19:45:48.696Z,16.40
2019-02-14T19:48:17.874Z,15.13
2019-02-14T19:50:47.224Z,15.30
2019-02-14T19:53:16.374Z,21.53
2019-02-14T19:55:45.635Z,18.20
2019-02-14T19:58:14.835Z,13.07
2019-02-14T20:00:44.027Z,19.40
2019-02-14T20:03:13.571Z,15.73
2019-02-14T20:05:42.815Z,19.63
2019-02-14T20:08:12.055Z,18.60
2019-02-14T20:10:41.263Z,18.37
2019-02-14T20:13:10.518Z,14.60
2019-02-14T20:15:39.710Z,21.13
2019-02-14T20:18:08.963Z,22.27
2019-02-14T20:20:38.285Z,17.40
2019-02-14T20:23:07.729Z,18.00
2019-02-14T20:25:37.284Z,20.63
2019-02-14T20:28:06.544Z,18.67
2019-02-14T20:30:35.741Z,17.00
2019-02-14T20:33:05.228Z,17.20
2019-02-14T20:35:35.974Z,13.10
2019-02-14T20:38:05.189Z,19.57
2019-02-14T20:40:34.425Z,19.53
2019-02-14T20:43:03.626Z,21.33
2019-02-14T20:45:32.937Z,17.23
2019-02-14T20:48:02.147Z,18.70
2019-02-14T20:50:31.385Z,15.47
2019-02-14T20:53:00.587Z,19.97
2019-02-14T20:55:29.844Z,18.37
2019-02-14T20:57:59.040Z,16.20
2019-02-14T21:00:29.262Z,16.80
2019-02-14T21:02:58.482Z,16.27
2019-02-14T21:05:27.748Z,15.47
2019-02-14T21:07:56.950Z,15.20
2019-02-14T21:10:26.156Z,12.73
2019-02-14T21:12:55.393Z,13.10
2019-02-14T21:15:24.589Z,12.20
2019-02-14T21:17:53.847Z,11.23
2019-02-14T21:20:23.084Z,14.80
2019-02-14T21:22:52.322Z,11.97
2019-02-14T21:25:23.406Z,13.43
2019-02-14T21:27:53.252Z,13.90
2019-02-14T21:30:22.482Z,28.33
2019-02-14T21:32:51.711Z,18.70
2019-02-14T21:35:20.997Z,14.67
2019-02-14T21:37:50.226Z,14.60
2019-02-14T21:40:19.437Z,11.70
2019-02-14T21:42:48.721Z,10.10
2019-02-14T21:45:17.959Z,12.43
2019-02-14T21:47:47.407Z,13.87
2019-02-14T21:50:16.624Z,9.10
2019-02-14T21:52:46.138Z,9.13
2019-02-14T21:55:15.360Z,8.07
2019-02-14T21:57:44.585Z,12.50
2019-02-14T22:00:16.317Z,8.33
2019-02-14T22:02:46.032Z,8.37
2019-02-14T22:05:15.640Z,10.37
2019-02-14T22:07:44.836Z,8.83
2019-02-14T22:10:14.125Z,9.63
2019-02-14T22:12:44.180Z,10.20
2019-02-14T22:15:15.777Z,9.10
2019-02-14T22:17:45.045Z,10.47
2019-02-14T22:20:14.381Z,7.07
2019-02-14T22:22:43.586Z,7.63
2019-02-14T22:25:12.881Z,6.83
2019-02-14T22:28:21.742Z,11.97
2019-02-14T22:30:51.261Z,8.67
2019-02-14T22:33:20.746Z,7.77
2019-02-14T22:35:50.335Z,7.40
2019-02-14T22:38:19.525Z,6.37
2019-02-14T22:40:48.759Z,6.47
2019-02-14T22:43:17.963Z,11.33
2019-02-14T22:45:47.637Z,11.20
2019-02-14T22:48:16.842Z,8.10
2019-02-14T22:50:46.089Z,8.10
2019-02-14T22:53:15.380Z,7.80
2019-02-14T22:55:44.937Z,7.70
2019-02-14T22:58:14.143Z,6.83
2019-02-14T23:01:02.591Z,6.77
2019-02-14T23:03:31.797Z,6.63
2019-02-14T23:06:01.042Z,8.23
2019-02-14T23:08:30.233Z,7.90
2019-02-14T23:10:59.500Z,7.83
2019-02-14T23:13:28.688Z,6.63
2019-02-14T23:15:57.887Z,7.63
2019-02-14T23:18:27.891Z,6.73
2019-02-14T23:20:57.097Z,5.70
2019-02-14T23:23:26.340Z,6.43
2019-02-14T23:25:55.836Z,6.23
2019-02-14T23:28:25.089Z,7.50
2019-02-14T23:30:54.283Z,6.40
2019-02-14T23:33:23.532Z,6.03
2019-02-14T23:35:52.846Z,3.80
2019-02-14T23:38:22.094Z,8.67
2019-02-14T23:40:51.576Z,6.47
2019-02-14T23:43:21.228Z,4.70
2019-02-14T23:45:50.808Z,7.83
2019-02-14T23:48:20.427Z,6.03
2019-02-14T23:50:49.625Z,9.93
2019-02-14T23:53:18.883Z,7.57
2019-02-14T23:55:48.087Z,9.63
2019-02-14T23:58:17.292Z,7.23
